sensor_id;sensor_type;location;lat;lon;timestamp;P1;durP1;ratioP1;P2;durP2;ratioP2
48516;SDS011;34310;51.904;4.256;2024-02-26T00:00:39;2.80;;;1.55;;
48516;SDS011;34310;51.904;4.256;2024-02-26T00:03:06;2.35;;;1.60;;
48516;SDS011;34310;51.904;4.256;2024-02-26T00:05:32;2.03;;;1.63;;
48516;SDS011;34310;51.904;4.256;2024-02-26T00:07:59;1.75;;;1.50;;
48516;SDS011;34310;51.904;4.256;2024-02-26T00:10:31;1.90;;;1.50;;
48516;SDS011;34310;51.904;4.256;2024-02-26T00:12:57;2.35;;;1.70;;
48516;SDS011;34310;51.904;4.256;2024-02-26T00:15:24;1.70;;;1.60;;
48516;SDS011;34310;51.904;4.256;2024-02-26T00:17:50;2.90;;;1.65;;
48516;SDS011;34310;51.904;4.256;2024-02-26T00:20:17;2.08;;;1.70;;
48516;SDS011;34310;51.904;4.256;2024-02-26T00:22:44;2.40;;;1.60;;
48516;SDS011;34310;51.904;4.256;2024-02-26T00:25:10;2.38;;;2.00;;
48516;SDS011;34310;51.904;4.256;2024-02-26T00:27:37;2.33;;;1.75;;
48516;SDS011;34310;51.904;4.256;2024-02-26T00:30:03;2.25;;;1.70;;
48516;SDS011;34310;51.904;4.256;2024-02-26T00:32:30;2.17;;;1.45;;
48516;SDS011;34310;51.904;4.256;2024-02-26T00:34:57;2.17;;;1.80;;
48516;SDS011;34310;51.904;4.256;2024-02-26T00:37:24;2.00;;;1.80;;
48516;SDS011;34310;51.904;4.256;2024-02-26T00:39:50;2.10;;;1.77;;
48516;SDS011;34310;51.904;4.256;2024-02-26T00:42:17;3.58;;;1.80;;
48516;SDS011;34310;51.904;4.256;2024-02-26T00:44:43;2.20;;;1.63;;
48516;SDS011;34310;51.904;4.256;2024-02-26T00:47:10;1.65;;;1.50;;
48516;SDS011;34310;51.904;4.256;2024-02-26T00:49:37;3.25;;;1.70;;
48516;SDS011;34310;51.904;4.256;2024-02-26T00:52:03;2.42;;;1.80;;
48516;SDS011;34310;51.904;4.256;2024-02-26T00:54:31;1.70;;;1.40;;
48516;SDS011;34310;51.904;4.256;2024-02-26T00:56:58;2.22;;;1.60;;
48516;SDS011;34310;51.904;4.256;2024-02-26T00:59:24;2.08;;;1.60;;
48516;SDS011;34310;51.904;4.256;2024-02-26T01:01:51;1.92;;;1.73;;
48516;SDS011;34310;51.904;4.256;2024-02-26T01:04:17;2.60;;;1.90;;
48516;SDS011;34310;51.904;4.256;2024-02-26T01:06:44;2.10;;;1.63;;
48516;SDS011;34310;51.904;4.256;2024-02-26T01:09:11;2.63;;;1.73;;
48516;SDS011;34310;51.904;4.256;2024-02-26T01:11:38;1.52;;;1.42;;
48516;SDS011;34310;51.904;4.256;2024-02-26T01:14:04;3.08;;;1.88;;
48516;SDS011;34310;51.904;4.256;2024-02-26T01:16:32;1.60;;;1.50;;
48516;SDS011;34310;51.904;4.256;2024-02-26T01:18:58;1.83;;;1.50;;
48516;SDS011;34310;51.904;4.256;2024-02-26T01:21:25;1.65;;;1.45;;
48516;SDS011;34310;51.904;4.256;2024-02-26T01:23:57;1.92;;;1.48;;
48516;SDS011;34310;51.904;4.256;2024-02-26T01:26:26;1.52;;;1.38;;
48516;SDS011;34310;51.904;4.256;2024-02-26T01:28:53;1.65;;;1.33;;
48516;SDS011;34310;51.904;4.256;2024-02-26T01:31:19;1.98;;;1.30;;
48516;SDS011;34310;51.904;4.256;2024-02-26T01:33:46;2.55;;;1.50;;
48516;SDS011;34310;51.904;4.256;2024-02-26T01:36:13;1.90;;;1.30;;
48516;SDS011;34310;51.904;4.256;2024-02-26T01:38:39;1.23;;;1.13;;
48516;SDS011;34310;51.904;4.256;2024-02-26T01:41:06;1.40;;;1.30;;
48516;SDS011;34310;51.904;4.256;2024-02-26T01:43:32;1.50;;;1.40;;
48516;SDS011;34310;51.904;4.256;2024-02-26T01:45:59;1.63;;;1.20;;
48516;SDS011;34310;51.904;4.256;2024-02-26T01:48:25;3.28;;;1.48;;
48516;SDS011;34310;51.904;4.256;2024-02-26T01:50:52;1.67;;;1.40;;
48516;SDS011;34310;51.904;4.256;2024-02-26T01:53:19;1.30;;;1.20;;
48516;SDS011;34310;51.904;4.256;2024-02-26T01:55:46;1.50;;;1.40;;
48516;SDS011;34310;51.904;4.256;2024-02-26T01:58:13;1.40;;;1.30;;
48516;SDS011;34310;51.904;4.256;2024-02-26T02:00:40;1.30;;;1.20;;
48516;SDS011;34310;51.904;4.256;2024-02-26T02:03:07;1.60;;;1.40;;
48516;SDS011;34310;51.904;4.256;2024-02-26T02:05:34;1.30;;;1.20;;
48516;SDS011;34310;51.904;4.256;2024-02-26T02:08:02;1.52;;;1.20;;
48516;SDS011;34310;51.904;4.256;2024-02-26T02:10:29;1.73;;;1.30;;
48516;SDS011;34310;51.904;4.256;2024-02-26T02:12:55;1.42;;;1.33;;
48516;SDS011;34310;51.904;4.256;2024-02-26T02:15:22;1.73;;;1.40;;
48516;SDS011;34310;51.904;4.256;2024-02-26T02:17:49;1.85;;;1.50;;
48516;SDS011;34310;51.904;4.256;2024-02-26T02:20:16;1.77;;;1.58;;
48516;SDS011;34310;51.904;4.256;2024-02-26T02:22:45;1.52;;;1.27;;
48516;SDS011;34310;51.904;4.256;2024-02-26T02:25:12;1.50;;;1.40;;
48516;SDS011;34310;51.904;4.256;2024-02-26T02:27:39;1.42;;;1.30;;
48516;SDS011;34310;51.904;4.256;2024-02-26T02:30:09;1.30;;;1.20;;
48516;SDS011;34310;51.904;4.256;2024-02-26T02:32:37;1.50;;;1.40;;
48516;SDS011;34310;51.904;4.256;2024-02-26T02:35:06;1.60;;;1.30;;
48516;SDS011;34310;51.904;4.256;2024-02-26T02:37:33;1.40;;;1.30;;
48516;SDS011;34310;51.904;4.256;2024-02-26T02:40:02;1.40;;;1.30;;
48516;SDS011;34310;51.904;4.256;2024-02-26T02:42:29;2.05;;;1.50;;
48516;SDS011;34310;51.904;4.256;2024-02-26T02:44:55;1.40;;;1.30;;
48516;SDS011;34310;51.904;4.256;2024-02-26T02:47:22;1.85;;;1.63;;
48516;SDS011;34310;51.904;4.256;2024-02-26T02:49:49;1.33;;;1.23;;
48516;SDS011;34310;51.904;4.256;2024-02-26T02:52:16;1.33;;;1.20;;
48516;SDS011;34310;51.904;4.256;2024-02-26T02:54:42;1.52;;;1.30;;
48516;SDS011;34310;51.904;4.256;2024-02-26T02:57:09;2.17;;;1.50;;
48516;SDS011;34310;51.904;4.256;2024-02-26T02:59:36;1.60;;;1.50;;
48516;SDS011;34310;51.904;4.256;2024-02-26T03:02:03;1.60;;;1.50;;
48516;SDS011;34310;51.904;4.256;2024-02-26T03:04:30;1.60;;;1.40;;
48516;SDS011;34310;51.904;4.256;2024-02-26T03:06:57;1.55;;;1.45;;
48516;SDS011;34310;51.904;4.256;2024-02-26T03:09:25;2.17;;;1.58;;
48516;SDS011;34310;51.904;4.256;2024-02-26T03:11:51;1.67;;;1.58;;
48516;SDS011;34310;51.904;4.256;2024-02-26T03:14:18;2.05;;;1.85;;
48516;SDS011;34310;51.904;4.256;2024-02-26T03:16:48;1.58;;;1.48;;
48516;SDS011;34310;51.904;4.256;2024-02-26T03:19:15;2.72;;;1.70;;
48516;SDS011;34310;51.904;4.256;2024-02-26T03:21:42;1.85;;;1.75;;
48516;SDS011;34310;51.904;4.256;2024-02-26T03:24:08;1.80;;;1.70;;
48516;SDS011;34310;51.904;4.256;2024-02-26T03:26:36;2.00;;;1.90;;
48516;SDS011;34310;51.904;4.256;2024-02-26T03:29:03;1.80;;;1.70;;
48516;SDS011;34310;51.904;4.256;2024-02-26T03:31:29;2.08;;;1.92;;
48516;SDS011;34310;51.904;4.256;2024-02-26T03:33:56;1.95;;;1.85;;
48516;SDS011;34310;51.904;4.256;2024-02-26T03:36:25;2.00;;;1.80;;
48516;SDS011;34310;51.904;4.256;2024-02-26T03:38:52;1.83;;;1.73;;
48516;SDS011;34310;51.904;4.256;2024-02-26T03:41:18;2.70;;;2.03;;
48516;SDS011;34310;51.904;4.256;2024-02-26T03:43:45;2.13;;;1.90;;
48516;SDS011;34310;51.904;4.256;2024-02-26T03:46:11;2.33;;;2.13;;
48516;SDS011;34310;51.904;4.256;2024-02-26T03:48:38;2.13;;;1.92;;
48516;SDS011;34310;51.904;4.256;2024-02-26T03:51:05;2.22;;;2.00;;
48516;SDS011;34310;51.904;4.256;2024-02-26T03:53:31;2.30;;;2.08;;
48516;SDS011;34310;51.904;4.256;2024-02-26T03:55:58;2.47;;;2.15;;
48516;SDS011;34310;51.904;4.256;2024-02-26T03:58:29;2.78;;;2.40;;
48516;SDS011;34310;51.904;4.256;2024-02-26T04:00:56;2.45;;;2.25;;
48516;SDS011;34310;51.904;4.256;2024-02-26T04:03:22;2.70;;;2.50;;
48516;SDS011;34310;51.904;4.256;2024-02-26T04:05:49;2.50;;;2.30;;
48516;SDS011;34310;51.904;4.256;2024-02-26T04:08:15;2.38;;;2.17;;
48516;SDS011;34310;51.904;4.256;2024-02-26T04:10:45;3.35;;;2.30;;
48516;SDS011;34310;51.904;4.256;2024-02-26T04:13:12;2.63;;;2.42;;
48516;SDS011;34310;51.904;4.256;2024-02-26T04:15:38;3.03;;;2.80;;
48516;SDS011;34310;51.904;4.256;2024-02-26T04:18:05;3.00;;;2.70;;
48516;SDS011;34310;51.904;4.256;2024-02-26T04:20:31;2.72;;;2.53;;
48516;SDS011;34310;51.904;4.256;2024-02-26T04:22:58;2.60;;;2.40;;
48516;SDS011;34310;51.904;4.256;2024-02-26T04:25:25;2.85;;;2.65;;
48516;SDS011;34310;51.904;4.256;2024-02-26T04:27:51;2.63;;;2.40;;
48516;SDS011;34310;51.904;4.256;2024-02-26T04:30:18;2.88;;;2.60;;
48516;SDS011;34310;51.904;4.256;2024-02-26T04:32:44;2.80;;;2.60;;
48516;SDS011;34310;51.904;4.256;2024-02-26T04:35:11;2.40;;;2.20;;
48516;SDS011;34310;51.904;4.256;2024-02-26T04:37:38;2.50;;;2.30;;
48516;SDS011;34310;51.904;4.256;2024-02-26T04:40:05;2.75;;;2.45;;
48516;SDS011;34310;51.904;4.256;2024-02-26T04:42:32;2.47;;;2.28;;
48516;SDS011;34310;51.904;4.256;2024-02-26T04:44:59;2.72;;;2.53;;
48516;SDS011;34310;51.904;4.256;2024-02-26T04:47:25;2.78;;;2.58;;
48516;SDS011;34310;51.904;4.256;2024-02-26T04:49:52;2.92;;;2.67;;
48516;SDS011;34310;51.904;4.256;2024-02-26T04:52:19;2.90;;;2.70;;
48516;SDS011;34310;51.904;4.256;2024-02-26T04:54:46;3.33;;;2.88;;
48516;SDS011;34310;51.904;4.256;2024-02-26T04:57:13;3.40;;;3.10;;
48516;SDS011;34310;51.904;4.256;2024-02-26T04:59:39;3.10;;;2.90;;
48516;SDS011;34310;51.904;4.256;2024-02-26T05:02:06;2.97;;;2.78;;
48516;SDS011;34310;51.904;4.256;2024-02-26T05:04:33;2.95;;;2.72;;
48516;SDS011;34310;51.904;4.256;2024-02-26T05:07:02;3.80;;;3.15;;
48516;SDS011;34310;51.904;4.256;2024-02-26T05:09:34;3.35;;;3.05;;
48516;SDS011;34310;51.904;4.256;2024-02-26T05:12:01;3.72;;;3.30;;
48516;SDS011;34310;51.904;4.256;2024-02-26T05:14:28;3.67;;;3.05;;
48516;SDS011;34310;51.904;4.256;2024-02-26T05:17:00;3.92;;;3.33;;
48516;SDS011;34310;51.904;4.256;2024-02-26T05:19:27;3.50;;;3.20;;
48516;SDS011;34310;51.904;4.256;2024-02-26T05:21:54;3.78;;;3.42;;
48516;SDS011;34310;51.904;4.256;2024-02-26T05:24:20;3.72;;;3.42;;
48516;SDS011;34310;51.904;4.256;2024-02-26T05:26:47;3.53;;;3.22;;
48516;SDS011;34310;51.904;4.256;2024-02-26T05:29:13;3.42;;;3.13;;
48516;SDS011;34310;51.904;4.256;2024-02-26T05:31:43;3.60;;;3.30;;
48516;SDS011;34310;51.904;4.256;2024-02-26T05:34:10;3.83;;;3.42;;
48516;SDS011;34310;51.904;4.256;2024-02-26T05:36:36;3.97;;;3.38;;
48516;SDS011;34310;51.904;4.256;2024-02-26T05:39:03;3.97;;;3.58;;
48516;SDS011;34310;51.904;4.256;2024-02-26T05:41:30;3.88;;;3.55;;
48516;SDS011;34310;51.904;4.256;2024-02-26T05:43:57;4.13;;;3.70;;
48516;SDS011;34310;51.904;4.256;2024-02-26T05:46:24;3.83;;;3.53;;
48516;SDS011;34310;51.904;4.256;2024-02-26T05:48:51;5.60;;;3.72;;
48516;SDS011;34310;51.904;4.256;2024-02-26T05:51:19;4.40;;;3.53;;
48516;SDS011;34310;51.904;4.256;2024-02-26T05:53:46;4.25;;;3.70;;
48516;SDS011;34310;51.904;4.256;2024-02-26T05:56:12;6.43;;;4.03;;
48516;SDS011;34310;51.904;4.256;2024-02-26T05:58:39;4.88;;;4.25;;
48516;SDS011;34310;51.904;4.256;2024-02-26T06:01:06;11.40;;;5.00;;
48516;SDS011;34310;51.904;4.256;2024-02-26T06:03:32;8.93;;;6.13;;
48516;SDS011;34310;51.904;4.256;2024-02-26T06:05:59;11.05;;;6.70;;
48516;SDS011;34310;51.904;4.256;2024-02-26T06:08:26;10.07;;;6.03;;
48516;SDS011;34310;51.904;4.256;2024-02-26T06:10:52;8.07;;;6.20;;
48516;SDS011;34310;51.904;4.256;2024-02-26T06:13:19;7.60;;;5.88;;
48516;SDS011;34310;51.904;4.256;2024-02-26T06:15:45;9.32;;;6.30;;
48516;SDS011;34310;51.904;4.256;2024-02-26T06:18:12;8.30;;;5.75;;
48516;SDS011;34310;51.904;4.256;2024-02-26T06:20:39;12.63;;;6.45;;
48516;SDS011;34310;51.904;4.256;2024-02-26T06:23:05;8.23;;;5.65;;
48516;SDS011;34310;51.904;4.256;2024-02-26T06:25:33;6.53;;;5.82;;
48516;SDS011;34310;51.904;4.256;2024-02-26T06:28:00;8.38;;;5.68;;
48516;SDS011;34310;51.904;4.256;2024-02-26T06:30:27;7.38;;;5.55;;
48516;SDS011;34310;51.904;4.256;2024-02-26T06:32:54;6.82;;;5.75;;
48516;SDS011;34310;51.904;4.256;2024-02-26T06:35:21;9.40;;;5.75;;
48516;SDS011;34310;51.904;4.256;2024-02-26T06:37:47;7.70;;;6.05;;
48516;SDS011;34310;51.904;4.256;2024-02-26T06:40:14;8.32;;;5.95;;
48516;SDS011;34310;51.904;4.256;2024-02-26T06:42:42;8.27;;;6.45;;
48516;SDS011;34310;51.904;4.256;2024-02-26T06:45:10;7.15;;;5.97;;
48516;SDS011;34310;51.904;4.256;2024-02-26T06:47:36;8.95;;;6.50;;
48516;SDS011;34310;51.904;4.256;2024-02-26T06:50:03;7.38;;;6.18;;
48516;SDS011;34310;51.904;4.256;2024-02-26T06:52:30;7.43;;;6.47;;
48516;SDS011;34310;51.904;4.256;2024-02-26T06:54:57;6.70;;;5.70;;
48516;SDS011;34310;51.904;4.256;2024-02-26T06:57:23;8.20;;;6.53;;
48516;SDS011;34310;51.904;4.256;2024-02-26T06:59:50;8.55;;;6.28;;
48516;SDS011;34310;51.904;4.256;2024-02-26T07:02:26;8.20;;;6.68;;
48516;SDS011;34310;51.904;4.256;2024-02-26T07:05:00;8.73;;;6.63;;
48516;SDS011;34310;51.904;4.256;2024-02-26T07:07:26;8.45;;;6.35;;
48516;SDS011;34310;51.904;4.256;2024-02-26T07:09:54;8.02;;;6.43;;
48516;SDS011;34310;51.904;4.256;2024-02-26T07:12:21;9.85;;;7.10;;
48516;SDS011;34310;51.904;4.256;2024-02-26T07:14:48;9.18;;;7.10;;
48516;SDS011;34310;51.904;4.256;2024-02-26T07:17:15;8.60;;;6.38;;
48516;SDS011;34310;51.904;4.256;2024-02-26T07:19:42;7.93;;;6.90;;
48516;SDS011;34310;51.904;4.256;2024-02-26T07:22:09;8.32;;;7.03;;
48516;SDS011;34310;51.904;4.256;2024-02-26T07:24:35;8.73;;;7.00;;
48516;SDS011;34310;51.904;4.256;2024-02-26T07:27:02;7.95;;;6.88;;
48516;SDS011;34310;51.904;4.256;2024-02-26T07:29:29;7.90;;;6.45;;
48516;SDS011;34310;51.904;4.256;2024-02-26T07:31:55;7.65;;;6.55;;
48516;SDS011;34310;51.904;4.256;2024-02-26T07:34:24;7.95;;;7.15;;
48516;SDS011;34310;51.904;4.256;2024-02-26T07:36:51;7.68;;;6.88;;
48516;SDS011;34310;51.904;4.256;2024-02-26T07:39:18;8.70;;;6.65;;
48516;SDS011;34310;51.904;4.256;2024-02-26T07:41:44;7.28;;;6.57;;
48516;SDS011;34310;51.904;4.256;2024-02-26T07:44:11;6.85;;;6.13;;
48516;SDS011;34310;51.904;4.256;2024-02-26T07:46:38;7.38;;;6.47;;
48516;SDS011;34310;51.904;4.256;2024-02-26T07:49:05;7.82;;;7.00;;
48516;SDS011;34310;51.904;4.256;2024-02-26T07:51:31;7.85;;;7.05;;
48516;SDS011;34310;51.904;4.256;2024-02-26T07:53:58;7.70;;;6.63;;
48516;SDS011;34310;51.904;4.256;2024-02-26T07:56:26;8.10;;;7.30;;
48516;SDS011;34310;51.904;4.256;2024-02-26T07:58:52;7.28;;;6.57;;
48516;SDS011;34310;51.904;4.256;2024-02-26T08:01:19;8.02;;;7.22;;
48516;SDS011;34310;51.904;4.256;2024-02-26T08:03:46;6.80;;;6.10;;
48516;SDS011;34310;51.904;4.256;2024-02-26T08:06:12;8.07;;;6.43;;
48516;SDS011;34310;51.904;4.256;2024-02-26T08:08:39;7.75;;;6.95;;
48516;SDS011;34310;51.904;4.256;2024-02-26T08:11:05;6.85;;;6.15;;
48516;SDS011;34310;51.904;4.256;2024-02-26T08:13:32;7.32;;;6.63;;
48516;SDS011;34310;51.904;4.256;2024-02-26T08:16:02;6.72;;;6.03;;
48516;SDS011;34310;51.904;4.256;2024-02-26T08:18:28;6.88;;;6.22;;
48516;SDS011;34310;51.904;4.256;2024-02-26T08:20:55;6.60;;;6.00;;
48516;SDS011;34310;51.904;4.256;2024-02-26T08:23:22;6.50;;;5.90;;
48516;SDS011;34310;51.904;4.256;2024-02-26T08:25:48;6.30;;;5.70;;
48516;SDS011;34310;51.904;4.256;2024-02-26T08:28:15;7.13;;;6.07;;
48516;SDS011;34310;51.904;4.256;2024-02-26T08:30:41;6.40;;;5.70;;
48516;SDS011;34310;51.904;4.256;2024-02-26T08:33:08;6.28;;;5.65;;
48516;SDS011;34310;51.904;4.256;2024-02-26T08:35:38;6.05;;;5.45;;
48516;SDS011;34310;51.904;4.256;2024-02-26T08:38:05;5.95;;;5.32;;
48516;SDS011;34310;51.904;4.256;2024-02-26T08:40:32;5.57;;;5.05;;
48516;SDS011;34310;51.904;4.256;2024-02-26T08:42:58;6.00;;;5.40;;
48516;SDS011;34310;51.904;4.256;2024-02-26T08:45:25;5.68;;;5.10;;
48516;SDS011;34310;51.904;4.256;2024-02-26T08:47:54;5.68;;;5.18;;
48516;SDS011;34310;51.904;4.256;2024-02-26T08:50:20;5.45;;;4.95;;
48516;SDS011;34310;51.904;4.256;2024-02-26T08:52:47;5.18;;;4.68;;
48516;SDS011;34310;51.904;4.256;2024-02-26T08:55:13;5.15;;;4.65;;
48516;SDS011;34310;51.904;4.256;2024-02-26T08:57:40;4.80;;;4.40;;
48516;SDS011;34310;51.904;4.256;2024-02-26T09:00:08;5.20;;;4.47;;
48516;SDS011;34310;51.904;4.256;2024-02-26T09:02:38;4.70;;;4.30;;
48516;SDS011;34310;51.904;4.256;2024-02-26T09:05:05;5.45;;;4.90;;
48516;SDS011;34310;51.904;4.256;2024-02-26T09:07:33;5.03;;;4.50;;
48516;SDS011;34310;51.904;4.256;2024-02-26T09:10:00;4.35;;;3.95;;
48516;SDS011;34310;51.904;4.256;2024-02-26T09:12:27;4.20;;;3.80;;
48516;SDS011;34310;51.904;4.256;2024-02-26T09:14:54;4.90;;;4.13;;
48516;SDS011;34310;51.904;4.256;2024-02-26T09:17:20;4.53;;;4.13;;
48516;SDS011;34310;51.904;4.256;2024-02-26T09:19:47;4.00;;;3.70;;
48516;SDS011;34310;51.904;4.256;2024-02-26T09:22:14;4.50;;;4.10;;
48516;SDS011;34310;51.904;4.256;2024-02-26T09:24:44;4.30;;;3.90;;
48516;SDS011;34310;51.904;4.256;2024-02-26T09:27:10;4.00;;;3.58;;
48516;SDS011;34310;51.904;4.256;2024-02-26T09:29:37;3.95;;;3.65;;
48516;SDS011;34310;51.904;4.256;2024-02-26T09:32:03;4.78;;;3.58;;
48516;SDS011;34310;51.904;4.256;2024-02-26T09:34:30;4.60;;;3.70;;
48516;SDS011;34310;51.904;4.256;2024-02-26T09:36:57;4.03;;;3.63;;
48516;SDS011;34310;51.904;4.256;2024-02-26T09:39:37;4.18;;;3.63;;
48516;SDS011;34310;51.904;4.256;2024-02-26T09:42:04;3.63;;;3.28;;
48516;SDS011;34310;51.904;4.256;2024-02-26T09:44:31;3.90;;;3.50;;
48516;SDS011;34310;51.904;4.256;2024-02-26T09:47:01;3.50;;;3.20;;
48516;SDS011;34310;51.904;4.256;2024-02-26T09:49:28;3.50;;;3.20;;
48516;SDS011;34310;51.904;4.256;2024-02-26T09:51:54;3.38;;;3.08;;
48516;SDS011;34310;51.904;4.256;2024-02-26T09:54:24;3.10;;;2.85;;
48516;SDS011;34310;51.904;4.256;2024-02-26T09:56:52;3.05;;;2.85;;
48516;SDS011;34310;51.904;4.256;2024-02-26T09:59:30;3.20;;;2.90;;
48516;SDS011;34310;51.904;4.256;2024-02-26T10:02:08;3.65;;;2.95;;
48516;SDS011;34310;51.904;4.256;2024-02-26T10:04:39;3.30;;;3.00;;
48516;SDS011;34310;51.904;4.256;2024-02-26T10:07:09;3.20;;;2.92;;
48516;SDS011;34310;51.904;4.256;2024-02-26T10:09:38;3.75;;;3.28;;
48516;SDS011;34310;51.904;4.256;2024-02-26T10:12:05;3.08;;;2.78;;
48516;SDS011;34310;51.904;4.256;2024-02-26T10:14:38;3.17;;;2.88;;
48516;SDS011;34310;51.904;4.256;2024-02-26T10:17:06;3.47;;;3.17;;
48516;SDS011;34310;51.904;4.256;2024-02-26T10:19:33;2.97;;;2.75;;
48516;SDS011;34310;51.904;4.256;2024-02-26T10:22:04;2.78;;;2.58;;
48516;SDS011;34310;51.904;4.256;2024-02-26T10:24:41;3.38;;;3.08;;
48516;SDS011;34310;51.904;4.256;2024-02-26T10:27:08;3.25;;;2.95;;
48516;SDS011;34310;51.904;4.256;2024-02-26T10:29:34;2.90;;;2.70;;
48516;SDS011;34310;51.904;4.256;2024-02-26T10:32:04;2.90;;;2.70;;
48516;SDS011;34310;51.904;4.256;2024-02-26T10:34:31;3.03;;;2.72;;
48516;SDS011;34310;51.904;4.256;2024-02-26T10:36:57;3.25;;;2.95;;
48516;SDS011;34310;51.904;4.256;2024-02-26T10:39:27;2.95;;;2.70;;
48516;SDS011;34310;51.904;4.256;2024-02-26T10:41:54;2.67;;;2.47;;
48516;SDS011;34310;51.904;4.256;2024-02-26T10:44:20;2.92;;;2.63;;
48516;SDS011;34310;51.904;4.256;2024-02-26T10:46:51;2.53;;;2.33;;
48516;SDS011;34310;51.904;4.256;2024-02-26T10:49:19;2.72;;;2.50;;
48516;SDS011;34310;51.904;4.256;2024-02-26T10:51:52;2.85;;;2.65;;
48516;SDS011;34310;51.904;4.256;2024-02-26T10:54:21;2.70;;;2.38;;
48516;SDS011;34310;51.904;4.256;2024-02-26T10:57:00;2.47;;;2.22;;
48516;SDS011;34310;51.904;4.256;2024-02-26T10:59:31;2.75;;;2.53;;
48516;SDS011;34310;51.904;4.256;2024-02-26T11:01:59;2.40;;;2.20;;
48516;SDS011;34310;51.904;4.256;2024-02-26T11:04:27;2.53;;;2.33;;
48516;SDS011;34310;51.904;4.256;2024-02-26T11:06:56;2.58;;;2.30;;
48516;SDS011;34310;51.904;4.256;2024-02-26T11:09:24;2.33;;;2.10;;
48516;SDS011;34310;51.904;4.256;2024-02-26T11:11:54;2.20;;;2.00;;
48516;SDS011;34310;51.904;4.256;2024-02-26T11:14:23;2.40;;;2.20;;
48516;SDS011;34310;51.904;4.256;2024-02-26T11:16:54;2.30;;;2.10;;
48516;SDS011;34310;51.904;4.256;2024-02-26T11:19:22;2.72;;;2.10;;
48516;SDS011;34310;51.904;4.256;2024-02-26T11:21:51;1.90;;;1.70;;
48516;SDS011;34310;51.904;4.256;2024-02-26T11:24:17;2.20;;;2.00;;
48516;SDS011;34310;51.904;4.256;2024-02-26T11:26:45;1.73;;;1.63;;
48516;SDS011;34310;51.904;4.256;2024-02-26T11:29:21;2.13;;;1.92;;
48516;SDS011;34310;51.904;4.256;2024-02-26T11:31:48;1.80;;;1.70;;
48516;SDS011;34310;51.904;4.256;2024-02-26T11:34:16;1.60;;;1.50;;
48516;SDS011;34310;51.904;4.256;2024-02-26T11:36:45;1.95;;;1.85;;
48516;SDS011;34310;51.904;4.256;2024-02-26T11:39:12;1.70;;;1.60;;
48516;SDS011;34310;51.904;4.256;2024-02-26T11:41:39;1.80;;;1.70;;
48516;SDS011;34310;51.904;4.256;2024-02-26T11:44:07;2.05;;;1.90;;
48516;SDS011;34310;51.904;4.256;2024-02-26T11:46:40;2.17;;;1.77;;
48516;SDS011;34310;51.904;4.256;2024-02-26T11:52:08;2.00;;;1.80;;
48516;SDS011;34310;51.904;4.256;2024-02-26T11:57:25;1.85;;;1.75;;
48516;SDS011;34310;51.904;4.256;2024-02-26T12:00:13;1.85;;;1.60;;
48516;SDS011;34310;51.904;4.256;2024-02-26T12:05:11;1.95;;;1.80;;
48516;SDS011;34310;51.904;4.256;2024-02-26T12:07:41;2.10;;;1.90;;
48516;SDS011;34310;51.904;4.256;2024-02-26T12:10:21;1.77;;;1.65;;
48516;SDS011;34310;51.904;4.256;2024-02-26T12:12:49;1.83;;;1.73;;
48516;SDS011;34310;51.904;4.256;2024-02-26T12:15:16;1.90;;;1.70;;
48516;SDS011;34310;51.904;4.256;2024-02-26T12:17:42;2.28;;;1.77;;
48516;SDS011;34310;51.904;4.256;2024-02-26T12:20:15;2.10;;;1.90;;
48516;SDS011;34310;51.904;4.256;2024-02-26T12:22:44;2.00;;;1.80;;
48516;SDS011;34310;51.904;4.256;2024-02-26T12:25:12;1.88;;;1.48;;
48516;SDS011;34310;51.904;4.256;2024-02-26T12:27:39;1.60;;;1.50;;
48516;SDS011;34310;51.904;4.256;2024-02-26T12:30:06;2.00;;;1.80;;
48516;SDS011;34310;51.904;4.256;2024-02-26T12:32:34;1.70;;;1.60;;
48516;SDS011;34310;51.904;4.256;2024-02-26T12:35:02;1.60;;;1.50;;
48516;SDS011;34310;51.904;4.256;2024-02-26T12:37:28;1.85;;;1.65;;
48516;SDS011;34310;51.904;4.256;2024-02-26T12:39:56;2.42;;;1.52;;
48516;SDS011;34310;51.904;4.256;2024-02-26T12:42:23;1.60;;;1.50;;
48516;SDS011;34310;51.904;4.256;2024-02-26T12:44:50;1.80;;;1.67;;
48516;SDS011;34310;51.904;4.256;2024-02-26T12:47:19;1.35;;;1.25;;
48516;SDS011;34310;51.904;4.256;2024-02-26T12:49:47;1.88;;;1.70;;
48516;SDS011;34310;51.904;4.256;2024-02-26T12:52:14;1.45;;;1.35;;
48516;SDS011;34310;51.904;4.256;2024-02-26T12:54:42;1.60;;;1.50;;
48516;SDS011;34310;51.904;4.256;2024-02-26T12:57:09;1.55;;;1.45;;
48516;SDS011;34310;51.904;4.256;2024-02-26T12:59:36;1.75;;;1.60;;
48516;SDS011;34310;51.904;4.256;2024-02-26T13:02:03;2.17;;;1.40;;
48516;SDS011;34310;51.904;4.256;2024-02-26T13:04:33;1.50;;;1.40;;
48516;SDS011;34310;51.904;4.256;2024-02-26T13:07:03;1.50;;;1.40;;
48516;SDS011;34310;51.904;4.256;2024-02-26T13:09:33;1.67;;;1.58;;
48516;SDS011;34310;51.904;4.256;2024-02-26T13:12:03;1.83;;;1.50;;
48516;SDS011;34310;51.904;4.256;2024-02-26T13:14:34;2.20;;;1.50;;
48516;SDS011;34310;51.904;4.256;2024-02-26T13:17:01;1.48;;;1.38;;
48516;SDS011;34310;51.904;4.256;2024-02-26T13:19:28;1.80;;;1.60;;
48516;SDS011;34310;51.904;4.256;2024-02-26T13:21:54;1.40;;;1.30;;
48516;SDS011;34310;51.904;4.256;2024-02-26T13:24:22;1.65;;;1.35;;
48516;SDS011;34310;51.904;4.256;2024-02-26T13:26:55;1.40;;;1.25;;
48516;SDS011;34310;51.904;4.256;2024-02-26T13:29:21;1.40;;;1.30;;
48516;SDS011;34310;51.904;4.256;2024-02-26T13:31:53;1.92;;;1.55;;
48516;SDS011;34310;51.904;4.256;2024-02-26T13:34:23;2.00;;;1.67;;
48516;SDS011;34310;51.904;4.256;2024-02-26T13:36:54;1.42;;;1.33;;
48516;SDS011;34310;51.904;4.256;2024-02-26T13:39:21;1.50;;;1.40;;
48516;SDS011;34310;51.904;4.256;2024-02-26T13:41:55;1.63;;;1.52;;
48516;SDS011;34310;51.904;4.256;2024-02-26T13:44:23;1.75;;;1.50;;
48516;SDS011;34310;51.904;4.256;2024-02-26T13:46:52;1.50;;;1.40;;
48516;SDS011;34310;51.904;4.256;2024-02-26T13:49:18;1.77;;;1.50;;
48516;SDS011;34310;51.904;4.256;2024-02-26T13:51:48;1.73;;;1.60;;
48516;SDS011;34310;51.904;4.256;2024-02-26T13:54:16;1.75;;;1.50;;
48516;SDS011;34310;51.904;4.256;2024-02-26T13:56:43;1.50;;;1.40;;
48516;SDS011;34310;51.904;4.256;2024-02-26T13:59:21;2.00;;;1.38;;
48516;SDS011;34310;51.904;4.256;2024-02-26T14:01:48;1.98;;;1.30;;
48516;SDS011;34310;51.904;4.256;2024-02-26T14:04:15;1.55;;;1.38;;
48516;SDS011;34310;51.904;4.256;2024-02-26T14:06:41;1.27;;;1.17;;
48516;SDS011;34310;51.904;4.256;2024-02-26T14:09:08;1.60;;;1.50;;
48516;SDS011;34310;51.904;4.256;2024-02-26T14:11:38;2.33;;;1.42;;
48516;SDS011;34310;51.904;4.256;2024-02-26T14:14:30;1.77;;;1.35;;
48516;SDS011;34310;51.904;4.256;2024-02-26T14:16:56;2.30;;;1.40;;
48516;SDS011;34310;51.904;4.256;2024-02-26T14:19:23;1.73;;;1.52;;
48516;SDS011;34310;51.904;4.256;2024-02-26T14:21:50;1.40;;;1.30;;
48516;SDS011;34310;51.904;4.256;2024-02-26T14:24:16;1.40;;;1.27;;
48516;SDS011;34310;51.904;4.256;2024-02-26T14:26:46;2.28;;;1.42;;
48516;SDS011;34310;51.904;4.256;2024-02-26T14:29:13;1.58;;;1.27;;
48516;SDS011;34310;51.904;4.256;2024-02-26T14:31:40;2.35;;;1.30;;
48516;SDS011;34310;51.904;4.256;2024-02-26T14:34:08;1.77;;;1.20;;
48516;SDS011;34310;51.904;4.256;2024-02-26T14:36:38;2.05;;;1.30;;
48516;SDS011;34310;51.904;4.256;2024-02-26T14:39:08;2.20;;;1.30;;
48516;SDS011;34310;51.904;4.256;2024-02-26T14:41:36;1.60;;;1.20;;
48516;SDS011;34310;51.904;4.256;2024-02-26T14:44:07;1.00;;;1.00;;
48516;SDS011;34310;51.904;4.256;2024-02-26T14:46:35;1.98;;;1.20;;
48516;SDS011;34310;51.904;4.256;2024-02-26T14:49:02;1.50;;;1.23;;
48516;SDS011;34310;51.904;4.256;2024-02-26T14:51:29;1.45;;;1.20;;
48516;SDS011;34310;51.904;4.256;2024-02-26T14:53:56;1.23;;;1.13;;
48516;SDS011;34310;51.904;4.256;2024-02-26T14:56:22;2.28;;;1.27;;
48516;SDS011;34310;51.904;4.256;2024-02-26T14:58:49;1.25;;;1.00;;